createdAt,value
2022-07-25T00:01:23.665Z,8.20
2022-07-25T00:03:51.960Z,7.83
2022-07-25T00:06:20.267Z,7.87
2022-07-25T00:08:48.481Z,7.83
2022-07-25T00:11:16.638Z,8.27
2022-07-25T00:13:44.901Z,8.00
2022-07-25T00:16:13.310Z,7.93
2022-07-25T00:18:42.756Z,8.03
2022-07-25T00:21:10.960Z,8.47
2022-07-25T00:23:39.121Z,8.07
2022-07-25T00:26:07.515Z,8.03
2022-07-25T00:28:35.666Z,8.40
2022-07-25T00:31:03.793Z,7.93
2022-07-25T00:33:32.046Z,7.67
2022-07-25T00:36:01.953Z,8.03
2022-07-25T00:38:30.175Z,8.30
2022-07-25T00:40:58.343Z,8.67
2022-07-25T00:43:26.481Z,8.57
2022-07-25T00:45:54.598Z,8.63
2022-07-25T00:48:22.897Z,8.33
2022-07-25T00:50:51.015Z,8.27
2022-07-25T00:53:20.719Z,7.87
2022-07-25T00:55:49.361Z,8.33
2022-07-25T00:58:18.877Z,8.67
2022-07-25T01:00:47.187Z,8.20
2022-07-25T01:03:15.409Z,7.73
2022-07-25T01:05:44.314Z,8.67
2022-07-25T01:08:13.338Z,8.13
2022-07-25T01:10:42.845Z,8.23
2022-07-25T01:13:10.949Z,8.20
2022-07-25T01:15:39.403Z,9.20
2022-07-25T01:18:07.676Z,8.33
2022-07-25T01:20:37.356Z,8.77
2022-07-25T01:23:05.586Z,8.60
2022-07-25T01:25:33.964Z,8.83
2022-07-25T01:28:02.103Z,8.30
2022-07-25T01:30:30.336Z,8.83
2022-07-25T01:32:58.616Z,8.77
2022-07-25T01:35:26.763Z,8.10
2022-07-25T01:37:56.326Z,9.37
2022-07-25T01:40:24.406Z,9.10
2022-07-25T01:42:52.662Z,9.00
2022-07-25T01:45:20.822Z,9.30
2022-07-25T01:47:49.130Z,9.00
2022-07-25T01:50:17.282Z,8.93
2022-07-25T01:52:45.520Z,9.27
2022-07-25T01:55:15.058Z,9.03
2022-07-25T01:57:49.392Z,9.37
2022-07-25T02:00:18.309Z,9.13
2022-07-25T02:02:47.635Z,9.07
2022-07-25T02:05:17.019Z,9.17
2022-07-25T02:07:47.373Z,9.40
2022-07-25T02:10:16.865Z,9.20
2022-07-25T02:12:45.007Z,8.60
2022-07-25T02:15:13.077Z,8.97
2022-07-25T02:17:41.258Z,8.63
2022-07-25T02:20:10.446Z,8.70
2022-07-25T02:22:38.622Z,8.90
2022-07-25T02:25:07.803Z,8.10
2022-07-25T02:27:38.055Z,8.40
2022-07-25T02:30:07.195Z,8.30
2022-07-25T02:32:35.399Z,8.80
2022-07-25T02:35:03.481Z,8.70
2022-07-25T02:37:41.333Z,8.17
2022-07-25T02:40:10.624Z,8.80
2022-07-25T02:42:40.193Z,8.30
2022-07-25T02:45:09.389Z,8.70
2022-07-25T02:47:37.500Z,8.37
2022-07-25T02:50:06.534Z,8.90
2022-07-25T02:52:36.519Z,8.63
2022-07-25T02:55:09.540Z,8.73
2022-07-25T02:57:39.594Z,8.80
2022-07-25T03:00:09.262Z,8.50
2022-07-25T03:02:37.978Z,9.43
2022-07-25T03:05:08.205Z,8.63
2022-07-25T03:07:36.791Z,8.60
2022-07-25T03:10:11.151Z,9.53
2022-07-25T03:12:43.187Z,9.13
2022-07-25T03:15:12.975Z,9.10
2022-07-25T03:17:42.136Z,9.33
2022-07-25T03:20:11.169Z,8.70
2022-07-25T03:22:40.314Z,8.80
2022-07-25T03:25:15.790Z,8.80
2022-07-25T03:27:51.413Z,8.90
2022-07-25T03:30:19.720Z,8.67
2022-07-25T03:32:48.049Z,9.00
2022-07-25T03:35:16.489Z,8.83
2022-07-25T03:37:44.696Z,9.00
2022-07-25T03:40:14.419Z,8.50
2022-07-25T03:42:44.221Z,9.07
2022-07-25T03:45:13.873Z,8.53
2022-07-25T03:47:41.964Z,8.57
2022-07-25T03:50:10.750Z,9.17
2022-07-25T03:52:39.418Z,8.00
2022-07-25T03:55:08.672Z,8.80
2022-07-25T03:57:37.876Z,8.47
2022-07-25T04:00:07.863Z,7.87
2022-07-25T04:02:38.261Z,7.80
2022-07-25T04:05:07.866Z,8.17
2022-07-25T04:07:36.612Z,7.77
2022-07-25T04:10:06.089Z,7.60
2022-07-25T04:12:34.397Z,7.80
2022-07-25T04:15:02.602Z,7.50
2022-07-25T04:17:30.811Z,7.27
2022-07-25T04:20:00.293Z,8.13
2022-07-25T04:22:31.390Z,7.30
2022-07-25T04:24:59.526Z,7.60
2022-07-25T04:27:27.658Z,7.37
2022-07-25T04:29:55.775Z,7.90
2022-07-25T04:32:23.976Z,7.63
2022-07-25T04:34:54.818Z,7.17
2022-07-25T04:37:24.298Z,7.43
2022-07-25T04:39:52.394Z,7.03
2022-07-25T04:42:20.431Z,7.20
2022-07-25T04:44:48.599Z,7.70
2022-07-25T04:47:16.716Z,7.40
2022-07-25T04:49:44.850Z,7.03
2022-07-25T04:52:13.185Z,8.10
2022-07-25T04:54:42.700Z,7.70
2022-07-25T04:57:10.882Z,7.50
2022-07-25T04:59:39.027Z,6.87
2022-07-25T05:02:07.299Z,7.10
2022-07-25T05:04:35.466Z,7.50
2022-07-25T05:07:11.550Z,6.93
2022-07-25T05:09:39.975Z,7.27
2022-07-25T05:12:09.968Z,7.73
2022-07-25T05:14:38.444Z,7.97
2022-07-25T05:17:06.792Z,6.77
2022-07-25T05:19:35.305Z,7.00
2022-07-25T05:22:04.562Z,7.57
2022-07-25T05:24:34.780Z,6.83
2022-07-25T05:27:03.339Z,7.63
2022-07-25T05:29:33.335Z,7.60
2022-07-25T05:32:01.613Z,6.87
2022-07-25T05:34:30.110Z,7.20
2022-07-25T05:36:58.249Z,6.90
2022-07-25T05:39:26.463Z,7.83
2022-07-25T05:41:54.737Z,7.73
2022-07-25T05:44:22.960Z,7.43
2022-07-25T05:46:52.442Z,7.70
2022-07-25T05:49:20.810Z,7.30
2022-07-25T05:51:48.928Z,7.20
2022-07-25T05:54:17.036Z,7.77
2022-07-25T05:56:45.144Z,6.77
2022-07-25T05:59:13.354Z,7.60
2022-07-25T06:01:41.550Z,7.37
2022-07-25T06:04:11.132Z,7.47
2022-07-25T06:06:39.331Z,7.73
2022-07-25T06:09:08.600Z,7.60
2022-07-25T06:11:37.230Z,8.17
2022-07-25T06:14:19.409Z,7.07
2022-07-25T06:16:47.996Z,7.37
2022-07-25T06:19:17.816Z,7.10
2022-07-25T06:21:46.067Z,7.50
2022-07-25T06:24:14.234Z,7.77
2022-07-25T06:26:42.753Z,7.80
2022-07-25T06:29:11.094Z,7.00
2022-07-25T06:31:39.469Z,8.00
2022-07-25T06:34:07.999Z,7.50
2022-07-25T06:36:37.876Z,7.53
2022-07-25T06:39:06.051Z,7.57
2022-07-25T06:41:34.211Z,8.13
2022-07-25T06:44:02.349Z,7.97
2022-07-25T06:46:32.995Z,7.57
2022-07-25T06:49:01.405Z,8.00
2022-07-25T06:51:29.637Z,7.30
2022-07-25T06:53:59.409Z,7.23
2022-07-25T06:56:31.357Z,7.60
2022-07-25T06:58:59.525Z,7.10
2022-07-25T07:01:27.900Z,7.17
2022-07-25T07:03:56.411Z,7.47
2022-07-25T07:06:24.589Z,7.40
2022-07-25T07:08:53.280Z,7.23
2022-07-25T07:11:22.842Z,7.33
2022-07-25T07:13:51.030Z,7.60
2022-07-25T07:16:19.191Z,6.93
2022-07-25T07:18:49.456Z,7.97
2022-07-25T07:21:21.336Z,6.90
2022-07-25T07:23:53.301Z,7.40
2022-07-25T07:26:23.235Z,7.13
2022-07-25T07:28:54.352Z,7.27
2022-07-25T07:31:22.654Z,7.03
2022-07-25T07:33:50.800Z,7.37
2022-07-25T07:36:19.021Z,7.20
2022-07-25T07:38:48.329Z,7.07
2022-07-25T07:41:16.980Z,7.40
2022-07-25T07:43:46.529Z,8.33
2022-07-25T07:46:14.786Z,7.07
2022-07-25T07:48:43.016Z,7.40
2022-07-25T07:51:11.283Z,7.30
2022-07-25T07:53:56.855Z,7.20
2022-07-25T07:56:25.039Z,6.77
2022-07-25T07:58:54.570Z,7.10
2022-07-25T08:01:22.730Z,7.00
2022-07-25T08:03:50.962Z,7.10
2022-07-25T08:06:19.134Z,7.30
2022-07-25T08:08:47.238Z,7.03
2022-07-25T08:11:15.422Z,7.00
2022-07-25T08:13:43.649Z,6.63
2022-07-25T08:16:14.125Z,6.60
2022-07-25T08:18:42.297Z,7.33
2022-07-25T08:21:10.512Z,6.53
2022-07-25T08:23:39.443Z,6.57
2022-07-25T08:26:07.917Z,6.30
2022-07-25T08:28:36.094Z,6.77
2022-07-25T08:31:04.359Z,6.80
2022-07-25T08:33:34.072Z,6.50
2022-07-25T08:36:02.456Z,6.47
2022-07-25T08:38:30.728Z,6.40
2022-07-25T08:40:59.776Z,6.70
2022-07-25T08:43:29.286Z,6.40
2022-07-25T08:45:57.496Z,7.17
2022-07-25T08:48:27.719Z,6.63
2022-07-25T08:50:58.141Z,6.43
2022-07-25T08:53:33.111Z,6.33
2022-07-25T08:56:06.711Z,6.30
2022-07-25T08:58:39.256Z,6.03
2022-07-25T09:01:08.057Z,6.70
2022-07-25T09:03:36.640Z,6.80
2022-07-25T09:06:17.280Z,6.60
2022-07-25T09:08:55.841Z,6.90
2022-07-25T09:11:34.965Z,6.20
2022-07-25T09:14:06.807Z,6.43
2022-07-25T09:16:40.080Z,5.90
2022-07-25T09:19:14.056Z,6.67
2022-07-25T09:21:46.037Z,7.23
2022-07-25T09:24:17.156Z,6.40
2022-07-25T09:26:47.039Z,6.40
2022-07-25T09:29:19.917Z,6.93
2022-07-25T09:31:48.380Z,6.40
2022-07-25T09:34:29.795Z,6.10
2022-07-25T09:36:59.570Z,6.20
2022-07-25T09:39:46.044Z,6.17
2022-07-25T09:42:24.270Z,6.60
2022-07-25T09:45:00.278Z,6.63
2022-07-25T09:47:28.849Z,6.03
2022-07-25T09:49:57.852Z,6.63
2022-07-25T09:52:27.374Z,7.03
2022-07-25T09:54:55.823Z,7.07
2022-07-25T09:57:25.789Z,6.93
2022-07-25T09:59:54.034Z,6.27
2022-07-25T10:02:34.436Z,6.27
2022-07-25T10:05:13.808Z,6.23
2022-07-25T10:07:47.539Z,6.10
2022-07-25T10:10:26.126Z,6.20
2022-07-25T10:13:10.181Z,6.23
2022-07-25T10:15:49.782Z,6.63
2022-07-25T10:18:19.828Z,6.47
2022-07-25T10:20:49.051Z,6.23
2022-07-25T10:23:24.115Z,6.33
2022-07-25T10:26:03.819Z,6.80
2022-07-25T10:28:40.379Z,6.93
2022-07-25T10:31:21.794Z,7.30
2022-07-25T10:33:53.006Z,7.40
2022-07-25T10:36:22.521Z,6.90
2022-07-25T10:38:57.978Z,7.03
2022-07-25T10:41:27.310Z,7.00
2022-07-25T10:44:00.548Z,6.80
2022-07-25T10:46:30.926Z,6.93
2022-07-25T10:49:04.093Z,7.67
2022-07-25T10:51:37.111Z,7.07
2022-07-25T10:54:18.017Z,9.13
2022-07-25T10:56:55.716Z,6.90
2022-07-25T10:59:29.078Z,7.60
2022-07-25T11:01:57.632Z,7.30
2022-07-25T11:04:25.966Z,7.43
2022-07-25T11:06:54.172Z,7.20
2022-07-25T11:09:27.551Z,7.63
2022-07-25T11:11:57.651Z,8.27
2022-07-25T11:14:27.336Z,8.30
2022-07-25T11:16:56.943Z,8.30
2022-07-25T11:19:27.297Z,7.40
2022-07-25T11:21:57.869Z,8.40
2022-07-25T11:24:37.667Z,8.07
2022-07-25T11:27:09.859Z,8.00
2022-07-25T11:29:41.097Z,7.93
2022-07-25T11:32:10.713Z,9.27
2022-07-25T11:34:42.453Z,9.47
2022-07-25T11:37:13.584Z,9.50
2022-07-25T11:39:45.703Z,9.53
2022-07-25T11:42:16.413Z,9.20
2022-07-25T11:44:47.999Z,9.33
2022-07-25T11:47:28.052Z,9.10
2022-07-25T11:49:59.062Z,10.67
2022-07-25T11:52:29.832Z,11.33
2022-07-25T11:55:01.262Z,10.87
2022-07-25T11:57:31.687Z,11.67
2022-07-25T12:00:01.254Z,11.97
2022-07-25T12:02:31.877Z,11.90
2022-07-25T12:05:01.940Z,13.70
2022-07-25T12:07:38.329Z,13.10
2022-07-25T12:10:10.696Z,11.33
2022-07-25T12:12:49.836Z,12.57
2022-07-25T12:15:20.649Z,10.97
2022-07-25T12:17:49.346Z,11.23
2022-07-25T12:20:19.854Z,11.77
2022-07-25T12:22:48.812Z,10.70
2022-07-25T12:25:18.525Z,10.30
2022-07-25T12:27:47.334Z,11.33
2022-07-25T12:30:15.879Z,11.47
2022-07-25T12:32:44.972Z,9.67
2022-07-25T12:35:15.446Z,9.33
2022-07-25T12:37:44.366Z,6.70
2022-07-25T12:40:15.158Z,5.30
2022-07-25T12:42:45.798Z,5.10
2022-07-25T12:45:15.526Z,4.87
2022-07-25T12:47:44.476Z,5.23
2022-07-25T12:50:13.439Z,4.93
2022-07-25T12:52:42.223Z,4.93
2022-07-25T12:55:12.692Z,4.53
2022-07-25T12:57:41.179Z,3.80
2022-07-25T13:00:14.716Z,4.00
2022-07-25T13:02:43.137Z,4.03
2022-07-25T13:05:11.898Z,4.50
2022-07-25T13:07:40.208Z,5.33
2022-07-25T13:10:09.408Z,4.60
2022-07-25T13:12:40.333Z,4.43
2022-07-25T13:15:11.380Z,4.67
2022-07-25T13:17:40.322Z,4.80
2022-07-25T13:20:09.930Z,4.90
2022-07-25T13:22:38.466Z,4.90
2022-07-25T13:25:07.485Z,4.70
2022-07-25T13:27:35.668Z,5.07
2022-07-25T13:30:03.886Z,5.40
2022-07-25T13:32:33.358Z,5.00
2022-07-25T13:35:01.450Z,5.00
2022-07-25T13:37:29.678Z,4.40
2022-07-25T13:39:57.869Z,4.73
2022-07-25T13:42:26.030Z,4.20
2022-07-25T13:44:54.125Z,4.70
2022-07-25T13:47:25.753Z,3.80
2022-07-25T13:49:59.321Z,3.63
2022-07-25T13:52:27.496Z,4.50
2022-07-25T13:54:55.815Z,4.23
2022-07-25T13:57:23.990Z,4.73
2022-07-25T13:59:52.094Z,4.10
2022-07-25T14:02:20.205Z,4.63
2022-07-25T14:04:48.313Z,4.20
2022-07-25T14:07:17.783Z,3.77
2022-07-25T14:09:46.427Z,4.00
2022-07-25T14:12:14.496Z,3.47
2022-07-25T14:14:42.717Z,3.43
2022-07-25T14:17:10.884Z,3.30
2022-07-25T14:19:39.137Z,3.00
2022-07-25T14:22:07.285Z,2.77
2022-07-25T14:24:36.781Z,2.40
2022-07-25T14:27:05.058Z,2.80
2022-07-25T14:29:33.370Z,2.10
2022-07-25T14:32:01.576Z,2.40
2022-07-25T14:34:29.770Z,2.50
2022-07-25T14:36:57.912Z,2.57
2022-07-25T14:39:26.035Z,2.70
2022-07-25T14:41:55.557Z,2.30
2022-07-25T14:44:23.723Z,2.27
2022-07-25T14:46:52.051Z,2.43
2022-07-25T14:49:20.302Z,2.40
2022-07-25T14:51:48.403Z,2.30
2022-07-25T14:54:16.741Z,2.57
2022-07-25T14:56:45.544Z,2.40
2022-07-25T14:59:15.090Z,2.33
2022-07-25T15:01:43.238Z,3.00
2022-07-25T15:04:11.288Z,2.53
2022-07-25T15:06:39.562Z,2.70
2022-07-25T15:09:08.179Z,2.97
2022-07-25T15:11:37.273Z,2.87
2022-07-25T15:14:05.355Z,2.50
2022-07-25T15:16:34.931Z,2.33
2022-07-25T15:19:26.106Z,2.77
2022-07-25T15:21:51.374Z,2.50
2022-07-25T15:24:19.588Z,2.77
2022-07-25T15:26:48.167Z,2.13
2022-07-25T15:29:20.496Z,3.23
2022-07-25T15:31:51.035Z,2.47
2022-07-25T15:34:19.256Z,2.50
2022-07-25T15:36:47.515Z,2.37
2022-07-25T15:39:15.694Z,2.23
2022-07-25T15:41:43.920Z,2.83
2022-07-25T15:44:12.007Z,2.40
2022-07-25T15:46:40.534Z,2.43
2022-07-25T15:49:10.899Z,1.80
2022-07-25T15:51:39.466Z,2.40
2022-07-25T15:54:07.774Z,2.50
2022-07-25T15:56:35.973Z,2.00
2022-07-25T15:59:04.698Z,2.07
2022-07-25T16:01:33.167Z,2.23
2022-07-25T16:04:01.595Z,2.43
2022-07-25T16:06:31.277Z,2.50
2022-07-25T16:08:59.381Z,2.53
2022-07-25T16:11:28.071Z,3.30
2022-07-25T16:13:56.310Z,4.13
2022-07-25T16:16:25.674Z,3.43
2022-07-25T16:18:53.950Z,3.70
2022-07-25T16:21:22.177Z,3.47
2022-07-25T16:23:51.644Z,3.70
2022-07-25T16:26:19.904Z,3.60
2022-07-25T16:28:48.915Z,3.13
2022-07-25T16:31:17.335Z,3.80
2022-07-25T16:33:45.563Z,3.47
2022-07-25T16:36:16.758Z,3.50
2022-07-25T16:38:47.637Z,3.33
2022-07-25T16:41:17.340Z,3.93
2022-07-25T16:43:45.757Z,3.13
2022-07-25T16:46:14.010Z,3.60
2022-07-25T16:48:42.344Z,3.33
2022-07-25T16:51:10.510Z,3.23
2022-07-25T16:53:38.660Z,3.40
2022-07-25T16:56:07.204Z,3.40
2022-07-25T16:58:36.716Z,3.13
2022-07-25T17:01:05.296Z,3.10
2022-07-25T17:03:33.423Z,3.10
2022-07-25T17:06:01.946Z,3.03
2022-07-25T17:08:31.893Z,3.30
2022-07-25T17:11:00.208Z,3.60
2022-07-25T17:13:28.513Z,2.83
2022-07-25T17:15:58.466Z,2.83
2022-07-25T17:18:26.923Z,2.87
2022-07-25T17:20:55.359Z,2.70
2022-07-25T17:23:23.601Z,2.77
2022-07-25T17:25:53.486Z,2.40
2022-07-25T17:28:22.097Z,2.40
2022-07-25T17:30:50.720Z,2.30
2022-07-25T17:33:20.419Z,2.97
2022-07-25T17:35:48.529Z,2.90
2022-07-25T17:38:16.645Z,2.97
2022-07-25T17:40:44.751Z,2.77
2022-07-25T17:43:12.893Z,2.80
2022-07-25T17:45:41.104Z,2.57
2022-07-25T17:48:11.711Z,2.80
2022-07-25T17:50:41.163Z,2.37
2022-07-25T17:53:09.639Z,2.60
2022-07-25T17:55:39.202Z,2.17
2022-07-25T17:58:07.623Z,2.30
2022-07-25T18:00:35.794Z,2.43
2022-07-25T18:03:04.014Z,2.07
2022-07-25T18:05:32.426Z,2.10
2022-07-25T18:08:02.947Z,2.10
2022-07-25T18:10:31.808Z,2.00
2022-07-25T18:13:01.961Z,2.20
2022-07-25T18:15:30.143Z,1.70
2022-07-25T18:17:58.267Z,2.07
2022-07-25T18:20:28.048Z,2.10
2022-07-25T18:22:58.650Z,2.50
2022-07-25T18:25:28.163Z,2.20
2022-07-25T18:27:56.332Z,2.70
2022-07-25T18:30:28.840Z,2.33
2022-07-25T18:32:57.530Z,2.13
2022-07-25T18:35:25.667Z,2.17
2022-07-25T18:37:53.958Z,2.27
2022-07-25T18:40:23.214Z,2.17
2022-07-25T18:42:52.797Z,2.20
2022-07-25T18:45:21.372Z,2.20
2022-07-25T18:47:50.077Z,1.63
2022-07-25T18:50:20.227Z,1.83
2022-07-25T18:52:48.464Z,1.90
2022-07-25T18:55:16.620Z,1.70
2022-07-25T18:57:44.725Z,1.70
2022-07-25T19:00:15.113Z,1.70
2022-07-25T19:02:43.313Z,1.73
2022-07-25T19:05:11.720Z,1.90
2022-07-25T19:07:40.878Z,1.77
2022-07-25T19:10:09.954Z,2.17
2022-07-25T19:12:39.072Z,1.87
2022-07-25T19:15:08.742Z,1.80
2022-07-25T19:17:38.338Z,1.70
2022-07-25T19:20:07.642Z,2.17
2022-07-25T19:22:36.106Z,1.80
2022-07-25T19:25:08.101Z,1.80
2022-07-25T19:27:36.517Z,1.83
2022-07-25T19:30:07.002Z,1.50
2022-07-25T19:32:35.995Z,2.17
2022-07-25T19:35:06.662Z,1.70
2022-07-25T19:37:35.217Z,1.60
2022-07-25T19:40:03.725Z,2.23
2022-07-25T19:42:31.830Z,1.43
2022-07-25T19:45:00.114Z,1.70
2022-07-25T19:47:28.633Z,1.73
2022-07-25T19:49:57.167Z,1.70
2022-07-25T19:52:26.740Z,1.90
2022-07-25T19:54:55.036Z,1.43
2022-07-25T19:57:23.184Z,1.67
2022-07-25T19:59:51.378Z,1.70
2022-07-25T20:02:19.761Z,1.80
2022-07-25T20:04:48.017Z,1.83
2022-07-25T20:07:16.287Z,2.10
2022-07-25T20:09:46.547Z,1.47
2022-07-25T20:12:14.802Z,1.83
2022-07-25T20:14:43.096Z,1.50
2022-07-25T20:17:11.598Z,2.00
2022-07-25T20:19:39.827Z,1.47
2022-07-25T20:22:08.157Z,2.10
2022-07-25T20:24:36.388Z,2.03
2022-07-25T20:27:07.212Z,1.80
2022-07-25T20:29:35.339Z,1.50
2022-07-25T20:32:03.985Z,1.80
2022-07-25T20:34:32.210Z,1.70
2022-07-25T20:37:00.578Z,1.60
2022-07-25T20:39:28.877Z,2.03
2022-07-25T20:41:57.272Z,1.60
2022-07-25T20:44:26.748Z,1.80
2022-07-25T20:46:54.902Z,1.80
2022-07-25T20:49:23.226Z,1.83
2022-07-25T20:51:54.558Z,1.40
2022-07-25T20:54:23.276Z,1.73
2022-07-25T20:56:51.996Z,1.60
2022-07-25T20:59:20.076Z,2.30
2022-07-25T21:01:49.739Z,1.60
2022-07-25T21:04:18.827Z,1.60
2022-07-25T21:06:47.140Z,2.00
2022-07-25T21:09:16.676Z,1.73
2022-07-25T21:11:44.928Z,1.90
2022-07-25T21:14:13.302Z,2.03
2022-07-25T21:16:41.630Z,2.30
2022-07-25T21:19:11.569Z,2.03
2022-07-25T21:21:39.933Z,1.83
2022-07-25T21:24:09.348Z,1.27
2022-07-25T21:26:39.280Z,2.20
2022-07-25T21:29:08.092Z,2.00
2022-07-25T21:31:36.589Z,1.90
2022-07-25T21:34:05.013Z,1.73
2022-07-25T21:36:34.982Z,2.23
2022-07-25T21:39:03.343Z,2.00
2022-07-25T21:41:31.649Z,1.63
2022-07-25T21:43:59.803Z,1.90
2022-07-25T21:46:28.087Z,1.80
2022-07-25T21:49:14.427Z,2.20
2022-07-25T21:51:44.660Z,2.10
2022-07-25T21:54:13.031Z,2.70
2022-07-25T21:56:42.140Z,2.10
2022-07-25T21:59:10.775Z,2.17
2022-07-25T22:01:39.942Z,2.13
2022-07-25T22:04:08.228Z,1.83
2022-07-25T22:06:36.621Z,2.13
2022-07-25T22:09:07.270Z,2.57
2022-07-25T22:11:42.344Z,2.20
2022-07-25T22:14:15.139Z,2.33
2022-07-25T22:16:43.591Z,2.00
2022-07-25T22:19:12.138Z,2.17
2022-07-25T22:21:41.359Z,1.60
2022-07-25T22:24:11.338Z,2.10
2022-07-25T22:26:39.772Z,2.07
2022-07-25T22:29:08.419Z,2.10
2022-07-25T22:31:38.745Z,2.30
2022-07-25T22:34:07.272Z,2.00
2022-07-25T22:36:35.575Z,2.13
2022-07-25T22:39:03.995Z,1.80
2022-07-25T22:41:33.741Z,2.07
2022-07-25T22:44:01.876Z,2.03
2022-07-25T22:46:30.581Z,2.10
2022-07-25T22:48:59.676Z,2.00
2022-07-25T22:51:28.017Z,2.50
2022-07-25T22:53:56.700Z,2.27
2022-07-25T22:56:25.306Z,2.57
2022-07-25T22:58:55.016Z,2.00
2022-07-25T23:01:23.531Z,2.60
2022-07-25T23:03:51.852Z,2.20
2022-07-25T23:06:21.370Z,2.17
2022-07-25T23:08:50.207Z,2.40
2022-07-25T23:11:18.341Z,2.53
2022-07-25T23:13:46.673Z,2.20
2022-07-25T23:16:16.445Z,2.10
2022-07-25T23:18:44.648Z,2.40
2022-07-25T23:21:12.787Z,2.17
2022-07-25T23:23:40.981Z,2.43
2022-07-25T23:26:09.206Z,2.03
2022-07-25T23:28:37.750Z,2.73
2022-07-25T23:31:06.117Z,2.70
2022-07-25T23:33:35.732Z,2.17
2022-07-25T23:36:03.951Z,2.37
2022-07-25T23:38:32.350Z,2.30
2022-07-25T23:41:00.648Z,2.50
2022-07-25T23:43:55.836Z,2.57
2022-07-25T23:46:18.155Z,2.43
2022-07-25T23:48:50.547Z,2.63
2022-07-25T23:51:18.743Z,2.63
2022-07-25T23:53:47.279Z,2.80
2022-07-25T23:56:20.494Z,2.30
2022-07-25T23:58:50.231Z,2.60
